sensor_id;sensor_type;location;lat;lon;timestamp;P1;durP1;ratioP1;P2;durP2;ratioP2
71381;SDS011;60099;45.660;13.804;2022-09-16T00:01:12;21.83;;;4.00;;
71381;SDS011;60099;45.660;13.804;2022-09-16T00:03:39;19.98;;;4.18;;
71381;SDS011;60099;45.660;13.804;2022-09-16T00:06:13;15.48;;;3.85;;
71381;SDS011;60099;45.660;13.804;2022-09-16T00:08:42;16.30;;;4.50;;
71381;SDS011;60099;45.660;13.804;2022-09-16T00:11:09;13.95;;;3.67;;
71381;SDS011;60099;45.660;13.804;2022-09-16T00:13:36;18.50;;;4.18;;
71381;SDS011;60099;45.660;13.804;2022-09-16T00:16:05;16.00;;;4.47;;
71381;SDS011;60099;45.660;13.804;2022-09-16T00:18:33;12.88;;;4.07;;
71381;SDS011;60099;45.660;13.804;2022-09-16T00:20:59;14.75;;;3.88;;
71381;SDS011;60099;45.660;13.804;2022-09-16T00:23:24;15.90;;;4.32;;
71381;SDS011;60099;45.660;13.804;2022-09-16T00:25:51;16.35;;;4.30;;
71381;SDS011;60099;45.660;13.804;2022-09-16T00:28:20;16.58;;;4.28;;
71381;SDS011;60099;45.660;13.804;2022-09-16T00:30:47;19.27;;;4.10;;
71381;SDS011;60099;45.660;13.804;2022-09-16T00:33:13;17.83;;;4.47;;
71381;SDS011;60099;45.660;13.804;2022-09-16T00:35:39;18.20;;;4.50;;
71381;SDS011;60099;45.660;13.804;2022-09-16T00:38:05;16.88;;;3.97;;
71381;SDS011;60099;45.660;13.804;2022-09-16T00:40:31;15.95;;;4.03;;
71381;SDS011;60099;45.660;13.804;2022-09-16T00:42:57;15.35;;;4.20;;
71381;SDS011;60099;45.660;13.804;2022-09-16T00:45:24;13.35;;;4.50;;
71381;SDS011;60099;45.660;13.804;2022-09-16T00:47:56;14.40;;;4.00;;
71381;SDS011;60099;45.660;13.804;2022-09-16T00:52:57;12.52;;;3.97;;
71381;SDS011;60099;45.660;13.804;2022-09-16T00:55:27;17.33;;;4.47;;
71381;SDS011;60099;45.660;13.804;2022-09-16T00:57:58;21.00;;;4.55;;
71381;SDS011;60099;45.660;13.804;2022-09-16T01:00:29;16.25;;;4.32;;
71381;SDS011;60099;45.660;13.804;2022-09-16T01:02:56;12.80;;;4.20;;
71381;SDS011;60099;45.660;13.804;2022-09-16T01:05:22;15.13;;;3.97;;
71381;SDS011;60099;45.660;13.804;2022-09-16T01:07:51;17.17;;;4.50;;
71381;SDS011;60099;45.660;13.804;2022-09-16T01:10:22;17.88;;;4.13;;
71381;SDS011;60099;45.660;13.804;2022-09-16T01:13:00;12.93;;;4.22;;
71381;SDS011;60099;45.660;13.804;2022-09-16T01:21:34;18.35;;;4.00;;
71381;SDS011;60099;45.660;13.804;2022-09-16T01:30:16;14.80;;;4.60;;
71381;SDS011;60099;45.660;13.804;2022-09-16T01:49:00;12.52;;;4.53;;
71381;SDS011;60099;45.660;13.804;2022-09-16T01:51:40;14.38;;;3.97;;
71381;SDS011;60099;45.660;13.804;2022-09-16T02:02:31;16.98;;;4.10;;
71381;SDS011;60099;45.660;13.804;2022-09-16T02:04:58;16.52;;;4.28;;
71381;SDS011;60099;45.660;13.804;2022-09-16T02:07:30;14.25;;;4.20;;
71381;SDS011;60099;45.660;13.804;2022-09-16T02:10:00;17.83;;;4.40;;
71381;SDS011;60099;45.660;13.804;2022-09-16T02:12:33;14.20;;;3.88;;
71381;SDS011;60099;45.660;13.804;2022-09-16T02:15:05;15.20;;;4.15;;
71381;SDS011;60099;45.660;13.804;2022-09-16T02:17:36;15.32;;;4.10;;
71381;SDS011;60099;45.660;13.804;2022-09-16T02:22:36;13.80;;;4.35;;
71381;SDS011;60099;45.660;13.804;2022-09-16T02:25:08;15.75;;;3.95;;
71381;SDS011;60099;45.660;13.804;2022-09-16T02:27:38;14.05;;;3.97;;
71381;SDS011;60099;45.660;13.804;2022-09-16T02:30:07;13.50;;;4.28;;
71381;SDS011;60099;45.660;13.804;2022-09-16T02:32:36;18.55;;;4.30;;
71381;SDS011;60099;45.660;13.804;2022-09-16T02:35:06;16.88;;;4.43;;
71381;SDS011;60099;45.660;13.804;2022-09-16T02:40:09;13.35;;;4.20;;
71381;SDS011;60099;45.660;13.804;2022-09-16T02:42:40;14.00;;;4.20;;
71381;SDS011;60099;45.660;13.804;2022-09-16T02:45:06;14.82;;;4.38;;
71381;SDS011;60099;45.660;13.804;2022-09-16T02:50:43;14.45;;;3.78;;
71381;SDS011;60099;45.660;13.804;2022-09-16T02:53:26;11.45;;;3.80;;
71381;SDS011;60099;45.660;13.804;2022-09-16T02:56:37;13.48;;;4.13;;
71381;SDS011;60099;45.660;13.804;2022-09-16T02:59:04;15.43;;;3.90;;
71381;SDS011;60099;45.660;13.804;2022-09-16T03:01:32;13.13;;;3.58;;
71381;SDS011;60099;45.660;13.804;2022-09-16T03:04:13;15.27;;;4.30;;
71381;SDS011;60099;45.660;13.804;2022-09-16T03:06:47;14.82;;;4.30;;
71381;SDS011;60099;45.660;13.804;2022-09-16T03:09:13;15.10;;;4.03;;
71381;SDS011;60099;45.660;13.804;2022-09-16T03:20:04;12.45;;;3.97;;
71381;SDS011;60099;45.660;13.804;2022-09-16T03:25:09;15.75;;;4.65;;
71381;SDS011;60099;45.660;13.804;2022-09-16T03:30:16;16.55;;;4.47;;
71381;SDS011;60099;45.660;13.804;2022-09-16T03:32:48;13.75;;;3.97;;
71381;SDS011;60099;45.660;13.804;2022-09-16T03:35:33;13.20;;;4.10;;
71381;SDS011;60099;45.660;13.804;2022-09-16T03:38:04;14.50;;;4.20;;
71381;SDS011;60099;45.660;13.804;2022-09-16T03:40:32;13.35;;;4.35;;
71381;SDS011;60099;45.660;13.804;2022-09-16T03:42:59;11.55;;;3.55;;
71381;SDS011;60099;45.660;13.804;2022-09-16T03:45:25;15.98;;;4.60;;
71381;SDS011;60099;45.660;13.804;2022-09-16T03:47:51;13.15;;;3.92;;
71381;SDS011;60099;45.660;13.804;2022-09-16T03:50:19;10.95;;;3.88;;
71381;SDS011;60099;45.660;13.804;2022-09-16T03:52:46;14.80;;;4.53;;
71381;SDS011;60099;45.660;13.804;2022-09-16T03:55:11;11.70;;;4.47;;
71381;SDS011;60099;45.660;13.804;2022-09-16T03:57:37;12.98;;;3.90;;
71381;SDS011;60099;45.660;13.804;2022-09-16T04:00:03;16.08;;;4.55;;
71381;SDS011;60099;45.660;13.804;2022-09-16T04:02:31;16.83;;;4.43;;
71381;SDS011;60099;45.660;13.804;2022-09-16T04:04:57;14.13;;;4.05;;
71381;SDS011;60099;45.660;13.804;2022-09-16T04:07:23;14.93;;;4.13;;
71381;SDS011;60099;45.660;13.804;2022-09-16T04:09:48;13.90;;;4.32;;
71381;SDS011;60099;45.660;13.804;2022-09-16T04:12:14;15.73;;;4.20;;
71381;SDS011;60099;45.660;13.804;2022-09-16T04:14:40;13.13;;;4.10;;
71381;SDS011;60099;45.660;13.804;2022-09-16T04:17:05;15.82;;;4.20;;
71381;SDS011;60099;45.660;13.804;2022-09-16T04:19:31;16.08;;;4.55;;
71381;SDS011;60099;45.660;13.804;2022-09-16T04:21:57;13.82;;;4.40;;
71381;SDS011;60099;45.660;13.804;2022-09-16T04:24:23;12.93;;;4.22;;
71381;SDS011;60099;45.660;13.804;2022-09-16T04:26:49;13.20;;;4.20;;
71381;SDS011;60099;45.660;13.804;2022-09-16T04:29:15;13.57;;;4.50;;
71381;SDS011;60099;45.660;13.804;2022-09-16T04:31:41;13.73;;;3.92;;
71381;SDS011;60099;45.660;13.804;2022-09-16T04:34:08;16.25;;;4.20;;
71381;SDS011;60099;45.660;13.804;2022-09-16T04:36:36;12.25;;;4.15;;
71381;SDS011;60099;45.660;13.804;2022-09-16T04:39:02;18.70;;;4.47;;
71381;SDS011;60099;45.660;13.804;2022-09-16T04:41:28;13.63;;;4.30;;
71381;SDS011;60099;45.660;13.804;2022-09-16T04:43:54;13.05;;;3.90;;
71381;SDS011;60099;45.660;13.804;2022-09-16T04:46:22;16.83;;;4.72;;
71381;SDS011;60099;45.660;13.804;2022-09-16T04:48:49;20.85;;;4.75;;
71381;SDS011;60099;45.660;13.804;2022-09-16T04:51:16;17.08;;;4.53;;
71381;SDS011;60099;45.660;13.804;2022-09-16T04:53:43;15.73;;;5.38;;
71381;SDS011;60099;45.660;13.804;2022-09-16T04:56:20;17.70;;;4.57;;
71381;SDS011;60099;45.660;13.804;2022-09-16T04:58:54;19.55;;;4.53;;
71381;SDS011;60099;45.660;13.804;2022-09-16T05:01:32;16.95;;;4.78;;
71381;SDS011;60099;45.660;13.804;2022-09-16T05:04:01;16.63;;;4.72;;
71381;SDS011;60099;45.660;13.804;2022-09-16T05:06:29;19.58;;;4.57;;
71381;SDS011;60099;45.660;13.804;2022-09-16T05:08:57;16.65;;;4.90;;
71381;SDS011;60099;45.660;13.804;2022-09-16T05:11:25;13.50;;;4.05;;
71381;SDS011;60099;45.660;13.804;2022-09-16T05:13:53;15.77;;;4.10;;
71381;SDS011;60099;45.660;13.804;2022-09-16T05:16:22;15.38;;;4.55;;
71381;SDS011;60099;45.660;13.804;2022-09-16T05:18:49;17.27;;;4.60;;
71381;SDS011;60099;45.660;13.804;2022-09-16T05:21:18;18.30;;;4.70;;
71381;SDS011;60099;45.660;13.804;2022-09-16T05:23:45;18.48;;;4.40;;
71381;SDS011;60099;45.660;13.804;2022-09-16T05:26:13;17.08;;;4.63;;
71381;SDS011;60099;45.660;13.804;2022-09-16T05:28:43;16.13;;;4.63;;
71381;SDS011;60099;45.660;13.804;2022-09-16T05:31:09;17.05;;;4.30;;
71381;SDS011;60099;45.660;13.804;2022-09-16T05:33:41;17.50;;;4.30;;
71381;SDS011;60099;45.660;13.804;2022-09-16T05:36:13;15.73;;;4.53;;
71381;SDS011;60099;45.660;13.804;2022-09-16T05:38:40;14.63;;;4.30;;
71381;SDS011;60099;45.660;13.804;2022-09-16T05:41:06;18.10;;;4.50;;
71381;SDS011;60099;45.660;13.804;2022-09-16T05:43:32;16.17;;;5.18;;
71381;SDS011;60099;45.660;13.804;2022-09-16T05:45:59;16.08;;;3.90;;
71381;SDS011;60099;45.660;13.804;2022-09-16T05:48:25;17.90;;;4.25;;
71381;SDS011;60099;45.660;13.804;2022-09-16T05:50:55;16.20;;;4.38;;
71381;SDS011;60099;45.660;13.804;2022-09-16T05:53:23;18.73;;;4.32;;
71381;SDS011;60099;45.660;13.804;2022-09-16T05:55:56;13.55;;;4.03;;
71381;SDS011;60099;45.660;13.804;2022-09-16T05:58:24;13.50;;;4.00;;
71381;SDS011;60099;45.660;13.804;2022-09-16T06:00:51;15.40;;;4.35;;
71381;SDS011;60099;45.660;13.804;2022-09-16T06:03:22;15.35;;;4.30;;
71381;SDS011;60099;45.660;13.804;2022-09-16T06:05:48;18.42;;;4.28;;
71381;SDS011;60099;45.660;13.804;2022-09-16T06:08:13;16.52;;;4.35;;
71381;SDS011;60099;45.660;13.804;2022-09-16T06:10:40;13.57;;;4.05;;
71381;SDS011;60099;45.660;13.804;2022-09-16T06:13:06;15.80;;;4.35;;
71381;SDS011;60099;45.660;13.804;2022-09-16T06:15:32;19.08;;;4.72;;
71381;SDS011;60099;45.660;13.804;2022-09-16T06:17:59;15.93;;;4.25;;
71381;SDS011;60099;45.660;13.804;2022-09-16T06:20:25;14.05;;;4.43;;
71381;SDS011;60099;45.660;13.804;2022-09-16T06:22:51;17.75;;;4.97;;
71381;SDS011;60099;45.660;13.804;2022-09-16T06:25:17;16.58;;;4.20;;
71381;SDS011;60099;45.660;13.804;2022-09-16T06:27:42;17.10;;;4.57;;
71381;SDS011;60099;45.660;13.804;2022-09-16T06:30:08;18.48;;;4.72;;
71381;SDS011;60099;45.660;13.804;2022-09-16T06:32:34;16.77;;;4.68;;
71381;SDS011;60099;45.660;13.804;2022-09-16T06:35:00;17.42;;;4.57;;
71381;SDS011;60099;45.660;13.804;2022-09-16T06:37:25;16.90;;;4.45;;
71381;SDS011;60099;45.660;13.804;2022-09-16T06:39:51;14.65;;;4.30;;
71381;SDS011;60099;45.660;13.804;2022-09-16T06:42:17;13.50;;;4.03;;
71381;SDS011;60099;45.660;13.804;2022-09-16T06:44:42;17.30;;;4.18;;
71381;SDS011;60099;45.660;13.804;2022-09-16T06:47:08;16.30;;;3.97;;
71381;SDS011;60099;45.660;13.804;2022-09-16T06:49:34;14.73;;;3.70;;
71381;SDS011;60099;45.660;13.804;2022-09-16T06:52:00;14.55;;;3.95;;
71381;SDS011;60099;45.660;13.804;2022-09-16T06:54:25;12.48;;;3.78;;
71381;SDS011;60099;45.660;13.804;2022-09-16T06:56:51;15.95;;;4.05;;
71381;SDS011;60099;45.660;13.804;2022-09-16T06:59:17;14.75;;;3.60;;
71381;SDS011;60099;45.660;13.804;2022-09-16T07:01:43;13.50;;;3.70;;
71381;SDS011;60099;45.660;13.804;2022-09-16T07:04:09;12.07;;;3.97;;
71381;SDS011;60099;45.660;13.804;2022-09-16T07:06:37;18.83;;;4.25;;
71381;SDS011;60099;45.660;13.804;2022-09-16T07:09:03;15.65;;;4.18;;
71381;SDS011;60099;45.660;13.804;2022-09-16T07:11:29;14.30;;;3.88;;
71381;SDS011;60099;45.660;13.804;2022-09-16T07:13:55;10.70;;;3.38;;
71381;SDS011;60099;45.660;13.804;2022-09-16T07:16:24;11.18;;;3.30;;
71381;SDS011;60099;45.660;13.804;2022-09-16T07:18:54;11.25;;;3.65;;
71381;SDS011;60099;45.660;13.804;2022-09-16T07:21:21;10.88;;;3.22;;
71381;SDS011;60099;45.660;13.804;2022-09-16T07:23:49;13.07;;;3.50;;
71381;SDS011;60099;45.660;13.804;2022-09-16T07:26:19;11.85;;;3.15;;
71381;SDS011;60099;45.660;13.804;2022-09-16T07:28:47;7.60;;;3.00;;
71381;SDS011;60099;45.660;13.804;2022-09-16T07:31:24;9.52;;;2.90;;
71381;SDS011;60099;45.660;13.804;2022-09-16T07:33:52;10.63;;;3.30;;
71381;SDS011;60099;45.660;13.804;2022-09-16T07:36:24;9.43;;;2.97;;
71381;SDS011;60099;45.660;13.804;2022-09-16T07:38:52;7.43;;;2.30;;
71381;SDS011;60099;45.660;13.804;2022-09-16T07:41:20;9.63;;;2.75;;
71381;SDS011;60099;45.660;13.804;2022-09-16T07:43:47;8.30;;;2.83;;
71381;SDS011;60099;45.660;13.804;2022-09-16T07:46:15;7.03;;;2.60;;
71381;SDS011;60099;45.660;13.804;2022-09-16T07:48:43;6.60;;;2.45;;
71381;SDS011;60099;45.660;13.804;2022-09-16T07:51:11;7.38;;;2.42;;
71381;SDS011;60099;45.660;13.804;2022-09-16T07:53:38;7.28;;;2.80;;
71381;SDS011;60099;45.660;13.804;2022-09-16T07:56:06;7.78;;;2.50;;
71381;SDS011;60099;45.660;13.804;2022-09-16T07:58:33;6.60;;;2.20;;
71381;SDS011;60099;45.660;13.804;2022-09-16T08:00:59;7.60;;;2.50;;
71381;SDS011;60099;45.660;13.804;2022-09-16T08:03:26;6.78;;;2.15;;
71381;SDS011;60099;45.660;13.804;2022-09-16T08:05:52;7.10;;;2.15;;
71381;SDS011;60099;45.660;13.804;2022-09-16T08:08:28;8.55;;;2.63;;
71381;SDS011;60099;45.660;13.804;2022-09-16T08:10:55;8.35;;;2.30;;
71381;SDS011;60099;45.660;13.804;2022-09-16T08:13:22;6.50;;;2.30;;
71381;SDS011;60099;45.660;13.804;2022-09-16T08:15:48;6.35;;;2.45;;
71381;SDS011;60099;45.660;13.804;2022-09-16T08:18:14;5.63;;;2.25;;
71381;SDS011;60099;45.660;13.804;2022-09-16T08:20:40;7.43;;;2.42;;
71381;SDS011;60099;45.660;13.804;2022-09-16T08:23:05;6.13;;;2.13;;
71381;SDS011;60099;45.660;13.804;2022-09-16T08:25:31;6.38;;;2.05;;
71381;SDS011;60099;45.660;13.804;2022-09-16T08:27:57;9.82;;;2.58;;
71381;SDS011;60099;45.660;13.804;2022-09-16T08:30:23;8.27;;;2.55;;
71381;SDS011;60099;45.660;13.804;2022-09-16T08:32:58;5.18;;;2.13;;
71381;SDS011;60099;45.660;13.804;2022-09-16T08:35:23;6.60;;;2.08;;
71381;SDS011;60099;45.660;13.804;2022-09-16T08:37:50;4.18;;;2.17;;
71381;SDS011;60099;45.660;13.804;2022-09-16T08:40:18;10.95;;;2.35;;
71381;SDS011;60099;45.660;13.804;2022-09-16T08:48:26;8.27;;;2.38;;
71381;SDS011;60099;45.660;13.804;2022-09-16T08:51:04;6.03;;;2.10;;
71381;SDS011;60099;45.660;13.804;2022-09-16T08:56:06;5.38;;;2.25;;
71381;SDS011;60099;45.660;13.804;2022-09-16T08:58:42;6.07;;;2.10;;
71381;SDS011;60099;45.660;13.804;2022-09-16T09:03:53;6.45;;;2.28;;
71381;SDS011;60099;45.660;13.804;2022-09-16T09:14:09;4.05;;;1.25;;
71381;SDS011;60099;45.660;13.804;2022-09-16T09:16:58;4.68;;;1.40;;
71381;SDS011;60099;45.660;13.804;2022-09-16T09:27:53;3.72;;;1.27;;
71381;SDS011;60099;45.660;13.804;2022-09-16T09:30:42;3.95;;;1.42;;
71381;SDS011;60099;45.660;13.804;2022-09-16T09:41:57;7.72;;;2.40;;
71381;SDS011;60099;45.660;13.804;2022-09-16T09:47:25;8.75;;;2.35;;
71381;SDS011;60099;45.660;13.804;2022-09-16T09:49:57;8.40;;;2.50;;
71381;SDS011;60099;45.660;13.804;2022-09-16T09:52:30;7.85;;;2.55;;
71381;SDS011;60099;45.660;13.804;2022-09-16T09:55:13;7.40;;;2.63;;
71381;SDS011;60099;45.660;13.804;2022-09-16T09:58:03;7.75;;;2.60;;
71381;SDS011;60099;45.660;13.804;2022-09-16T10:00:35;4.10;;;2.08;;
71381;SDS011;60099;45.660;13.804;2022-09-16T10:03:04;5.35;;;2.17;;
71381;SDS011;60099;45.660;13.804;2022-09-16T10:05:37;6.25;;;1.70;;
71381;SDS011;60099;45.660;13.804;2022-09-16T10:08:08;3.97;;;1.60;;
71381;SDS011;60099;45.660;13.804;2022-09-16T10:10:43;3.92;;;1.60;;
71381;SDS011;60099;45.660;13.804;2022-09-16T10:13:21;3.78;;;1.65;;
71381;SDS011;60099;45.660;13.804;2022-09-16T10:15:48;4.93;;;1.70;;
71381;SDS011;60099;45.660;13.804;2022-09-16T10:18:27;5.25;;;1.90;;
71381;SDS011;60099;45.660;13.804;2022-09-16T10:21:01;2.90;;;1.60;;
71381;SDS011;60099;45.660;13.804;2022-09-16T10:23:29;5.22;;;1.50;;
71381;SDS011;60099;45.660;13.804;2022-09-16T10:28:59;3.38;;;1.13;;
71381;SDS011;60099;45.660;13.804;2022-09-16T10:31:33;1.85;;;1.00;;
71381;SDS011;60099;45.660;13.804;2022-09-16T10:34:02;3.08;;;0.90;;
71381;SDS011;60099;45.660;13.804;2022-09-16T10:36:37;2.58;;;1.20;;
71381;SDS011;60099;45.660;13.804;2022-09-16T10:39:03;4.25;;;1.33;;
71381;SDS011;60099;45.660;13.804;2022-09-16T10:41:33;2.28;;;1.15;;
71381;SDS011;60099;45.660;13.804;2022-09-16T10:44:28;2.50;;;1.00;;
71381;SDS011;60099;45.660;13.804;2022-09-16T10:46:55;3.33;;;1.20;;
71381;SDS011;60099;45.660;13.804;2022-09-16T10:49:27;3.58;;;1.45;;
71381;SDS011;60099;45.660;13.804;2022-09-16T10:52:07;2.97;;;1.02;;
71381;SDS011;60099;45.660;13.804;2022-09-16T10:54:38;2.17;;;1.30;;
71381;SDS011;60099;45.660;13.804;2022-09-16T10:57:18;3.20;;;1.17;;
71381;SDS011;60099;45.660;13.804;2022-09-16T11:00:10;2.50;;;0.90;;
71381;SDS011;60099;45.660;13.804;2022-09-16T11:05:06;1.45;;;0.73;;
71381;SDS011;60099;45.660;13.804;2022-09-16T11:10:30;1.20;;;0.40;;
71381;SDS011;60099;45.660;13.804;2022-09-16T11:18:43;0.47;;;0.47;;
71381;SDS011;60099;45.660;13.804;2022-09-16T11:43:23;2.90;;;0.60;;
71381;SDS011;60099;45.660;13.804;2022-09-16T11:59:12;0.82;;;0.70;;
71381;SDS011;60099;45.660;13.804;2022-09-16T12:05:00;0.68;;;0.60;;
71381;SDS011;60099;45.660;13.804;2022-09-16T12:10:24;2.10;;;0.80;;
71381;SDS011;60099;45.660;13.804;2022-09-16T12:13:06;1.00;;;0.60;;
71381;SDS011;60099;45.660;13.804;2022-09-16T12:15:52;1.60;;;0.50;;
71381;SDS011;60099;45.660;13.804;2022-09-16T12:18:38;1.00;;;0.50;;
71381;SDS011;60099;45.660;13.804;2022-09-16T12:21:13;1.10;;;0.50;;
71381;SDS011;60099;45.660;13.804;2022-09-16T12:23:42;3.22;;;0.50;;
71381;SDS011;60099;45.660;13.804;2022-09-16T12:26:13;0.60;;;0.30;;
71381;SDS011;60099;45.660;13.804;2022-09-16T12:28:50;2.88;;;0.60;;
71381;SDS011;60099;45.660;13.804;2022-09-16T12:31:36;1.80;;;0.43;;
71381;SDS011;60099;45.660;13.804;2022-09-16T12:34:28;0.55;;;0.30;;
71381;SDS011;60099;45.660;13.804;2022-09-16T12:39:38;0.35;;;0.32;;
71381;SDS011;60099;45.660;13.804;2022-09-16T12:47:42;1.30;;;0.60;;
71381;SDS011;60099;45.660;13.804;2022-09-16T12:50:37;1.65;;;0.65;;
71381;SDS011;60099;45.660;13.804;2022-09-16T12:56:19;0.80;;;0.57;;
71381;SDS011;60099;45.660;13.804;2022-09-16T13:01:45;1.35;;;0.60;;
71381;SDS011;60099;45.660;13.804;2022-09-16T13:04:22;0.30;;;0.30;;
71381;SDS011;60099;45.660;13.804;2022-09-16T13:07:00;1.20;;;0.30;;
71381;SDS011;60099;45.660;13.804;2022-09-16T13:09:27;1.45;;;0.40;;
71381;SDS011;60099;45.660;13.804;2022-09-16T13:12:16;0.43;;;0.30;;
71381;SDS011;60099;45.660;13.804;2022-09-16T13:14:49;0.40;;;0.40;;
71381;SDS011;60099;45.660;13.804;2022-09-16T13:17:28;0.90;;;0.50;;
71381;SDS011;60099;45.660;13.804;2022-09-16T13:19:54;0.63;;;0.45;;
71381;SDS011;60099;45.660;13.804;2022-09-16T13:22:55;1.63;;;0.47;;
71381;SDS011;60099;45.660;13.804;2022-09-16T13:25:34;0.85;;;0.40;;
71381;SDS011;60099;45.660;13.804;2022-09-16T13:28:25;1.05;;;0.38;;
71381;SDS011;60099;45.660;13.804;2022-09-16T13:31:14;2.83;;;0.90;;
71381;SDS011;60099;45.660;13.804;2022-09-16T13:33:46;1.75;;;0.63;;
71381;SDS011;60099;45.660;13.804;2022-09-16T13:38:59;0.95;;;0.60;;
71381;SDS011;60099;45.660;13.804;2022-09-16T13:41:44;2.05;;;0.80;;
71381;SDS011;60099;45.660;13.804;2022-09-16T13:44:28;2.40;;;0.75;;
71381;SDS011;60099;45.660;13.804;2022-09-16T13:49:49;1.45;;;0.65;;
71381;SDS011;60099;45.660;13.804;2022-09-16T13:52:19;1.20;;;0.82;;
71381;SDS011;60099;45.660;13.804;2022-09-16T13:54:51;0.88;;;0.60;;
71381;SDS011;60099;45.660;13.804;2022-09-16T14:13:55;0.93;;;0.65;;
71381;SDS011;60099;45.660;13.804;2022-09-16T14:16:27;0.60;;;0.50;;
71381;SDS011;60099;45.660;13.804;2022-09-16T14:18:55;1.90;;;0.70;;
71381;SDS011;60099;45.660;13.804;2022-09-16T14:21:29;0.73;;;0.50;;
71381;SDS011;60099;45.660;13.804;2022-09-16T14:24:05;1.67;;;0.52;;
71381;SDS011;60099;45.660;13.804;2022-09-16T14:26:37;0.98;;;0.63;;
71381;SDS011;60099;45.660;13.804;2022-09-16T14:29:03;2.08;;;0.73;;
71381;SDS011;60099;45.660;13.804;2022-09-16T14:31:30;1.30;;;0.50;;
71381;SDS011;60099;45.660;13.804;2022-09-16T14:34:02;0.70;;;0.52;;
71381;SDS011;60099;45.660;13.804;2022-09-16T14:36:38;0.95;;;0.50;;
71381;SDS011;60099;45.660;13.804;2022-09-16T14:39:12;0.73;;;0.63;;
71381;SDS011;60099;45.660;13.804;2022-09-16T14:41:52;1.80;;;0.65;;
71381;SDS011;60099;45.660;13.804;2022-09-16T14:44:38;1.52;;;0.60;;
71381;SDS011;60099;45.660;13.804;2022-09-16T14:47:18;0.90;;;0.70;;
71381;SDS011;60099;45.660;13.804;2022-09-16T14:49:55;1.70;;;0.73;;
71381;SDS011;60099;45.660;13.804;2022-09-16T14:52:27;1.48;;;0.50;;
71381;SDS011;60099;45.660;13.804;2022-09-16T14:54:55;2.25;;;0.82;;
71381;SDS011;60099;45.660;13.804;2022-09-16T14:57:23;0.90;;;0.70;;
71381;SDS011;60099;45.660;13.804;2022-09-16T14:59:57;1.13;;;0.70;;
71381;SDS011;60099;45.660;13.804;2022-09-16T15:07:49;1.45;;;0.80;;
71381;SDS011;60099;45.660;13.804;2022-09-16T15:12:57;1.00;;;0.80;;
71381;SDS011;60099;45.660;13.804;2022-09-16T15:15:29;1.30;;;0.95;;
71381;SDS011;60099;45.660;13.804;2022-09-16T15:20:38;2.03;;;0.80;;
71381;SDS011;60099;45.660;13.804;2022-09-16T15:23:06;2.92;;;0.90;;
71381;SDS011;60099;45.660;13.804;2022-09-16T15:25:49;0.90;;;0.90;;
71381;SDS011;60099;45.660;13.804;2022-09-16T15:28:24;2.97;;;1.02;;
71381;SDS011;60099;45.660;13.804;2022-09-16T15:30:51;1.67;;;0.90;;
71381;SDS011;60099;45.660;13.804;2022-09-16T15:36:01;4.83;;;1.13;;
71381;SDS011;60099;45.660;13.804;2022-09-16T15:38:28;0.70;;;0.70;;
71381;SDS011;60099;45.660;13.804;2022-09-16T15:41:11;1.52;;;0.80;;
71381;SDS011;60099;45.660;13.804;2022-09-16T15:43:38;2.03;;;0.90;;
71381;SDS011;60099;45.660;13.804;2022-09-16T15:46:15;4.00;;;1.00;;
71381;SDS011;60099;45.660;13.804;2022-09-16T15:48:50;3.90;;;0.80;;
71381;SDS011;60099;45.660;13.804;2022-09-16T15:51:38;1.55;;;0.63;;
71381;SDS011;60099;45.660;13.804;2022-09-16T15:54:22;0.60;;;0.60;;
71381;SDS011;60099;45.660;13.804;2022-09-16T15:57:00;0.98;;;0.77;;
71381;SDS011;60099;45.660;13.804;2022-09-16T16:01:59;0.73;;;0.57;;
71381;SDS011;60099;45.660;13.804;2022-09-16T16:04:30;1.33;;;0.73;;
71381;SDS011;60099;45.660;13.804;2022-09-16T16:07:01;1.83;;;0.88;;
71381;SDS011;60099;45.660;13.804;2022-09-16T16:09:29;0.98;;;0.57;;
71381;SDS011;60099;45.660;13.804;2022-09-16T16:14:28;1.33;;;0.80;;
71381;SDS011;60099;45.660;13.804;2022-09-16T16:17:17;1.80;;;0.68;;
71381;SDS011;60099;45.660;13.804;2022-09-16T16:19:46;1.60;;;0.85;;
71381;SDS011;60099;45.660;13.804;2022-09-16T16:22:14;1.13;;;0.77;;
71381;SDS011;60099;45.660;13.804;2022-09-16T16:24:40;1.73;;;0.60;;
71381;SDS011;60099;45.660;13.804;2022-09-16T16:27:06;2.15;;;0.77;;
71381;SDS011;60099;45.660;13.804;2022-09-16T16:29:32;1.20;;;0.70;;
71381;SDS011;60099;45.660;13.804;2022-09-16T16:32:10;2.03;;;0.70;;
71381;SDS011;60099;45.660;13.804;2022-09-16T16:34:38;1.90;;;0.90;;
71381;SDS011;60099;45.660;13.804;2022-09-16T16:37:08;2.17;;;0.90;;
71381;SDS011;60099;45.660;13.804;2022-09-16T16:39:38;1.20;;;0.50;;
71381;SDS011;60099;45.660;13.804;2022-09-16T16:42:06;1.25;;;0.70;;
71381;SDS011;60099;45.660;13.804;2022-09-16T16:44:34;2.17;;;0.90;;
71381;SDS011;60099;45.660;13.804;2022-09-16T16:47:00;0.70;;;0.70;;
71381;SDS011;60099;45.660;13.804;2022-09-16T16:49:26;1.63;;;0.80;;
71381;SDS011;60099;45.660;13.804;2022-09-16T16:51:54;2.20;;;1.05;;
71381;SDS011;60099;45.660;13.804;2022-09-16T16:54:24;2.50;;;0.85;;
71381;SDS011;60099;45.660;13.804;2022-09-16T16:56:51;3.85;;;1.50;;
71381;SDS011;60099;45.660;13.804;2022-09-16T16:59:18;1.02;;;0.60;;
71381;SDS011;60099;45.660;13.804;2022-09-16T17:01:44;1.30;;;0.88;;
71381;SDS011;60099;45.660;13.804;2022-09-16T17:04:14;2.05;;;0.70;;
71381;SDS011;60099;45.660;13.804;2022-09-16T17:06:40;1.50;;;0.85;;
71381;SDS011;60099;45.660;13.804;2022-09-16T17:09:07;0.98;;;0.70;;
71381;SDS011;60099;45.660;13.804;2022-09-16T17:11:34;1.20;;;0.70;;
71381;SDS011;60099;45.660;13.804;2022-09-16T17:14:02;0.98;;;0.70;;
71381;SDS011;60099;45.660;13.804;2022-09-16T17:16:29;2.40;;;0.70;;
71381;SDS011;60099;45.660;13.804;2022-09-16T17:18:56;0.98;;;0.77;;
71381;SDS011;60099;45.660;13.804;2022-09-16T17:21:24;1.58;;;0.88;;
71381;SDS011;60099;45.660;13.804;2022-09-16T17:23:52;1.42;;;0.70;;
71381;SDS011;60099;45.660;13.804;2022-09-16T17:26:18;1.80;;;0.80;;
71381;SDS011;60099;45.660;13.804;2022-09-16T17:28:45;1.95;;;0.98;;
71381;SDS011;60099;45.660;13.804;2022-09-16T17:31:17;1.10;;;0.82;;
71381;SDS011;60099;45.660;13.804;2022-09-16T17:33:54;2.55;;;1.15;;
71381;SDS011;60099;45.660;13.804;2022-09-16T17:36:21;1.33;;;0.77;;
71381;SDS011;60099;45.660;13.804;2022-09-16T17:38:55;0.60;;;0.60;;
71381;SDS011;60099;45.660;13.804;2022-09-16T17:41:22;2.58;;;0.90;;
71381;SDS011;60099;45.660;13.804;2022-09-16T17:43:54;2.40;;;0.77;;
71381;SDS011;60099;45.660;13.804;2022-09-16T17:46:21;1.70;;;0.75;;
71381;SDS011;60099;45.660;13.804;2022-09-16T17:48:48;1.83;;;1.00;;
71381;SDS011;60099;45.660;13.804;2022-09-16T17:51:17;1.27;;;0.73;;
71381;SDS011;60099;45.660;13.804;2022-09-16T17:53:42;1.05;;;0.90;;
71381;SDS011;60099;45.660;13.804;2022-09-16T17:56:14;1.83;;;0.82;;
71381;SDS011;60099;45.660;13.804;2022-09-16T17:58:44;1.40;;;0.70;;
71381;SDS011;60099;45.660;13.804;2022-09-16T18:01:15;2.25;;;0.77;;
71381;SDS011;60099;45.660;13.804;2022-09-16T18:03:43;2.08;;;1.02;;
71381;SDS011;60099;45.660;13.804;2022-09-16T18:06:10;3.22;;;0.88;;
71381;SDS011;60099;45.660;13.804;2022-09-16T18:08:37;1.42;;;0.70;;
71381;SDS011;60099;45.660;13.804;2022-09-16T18:11:04;1.42;;;0.75;;
71381;SDS011;60099;45.660;13.804;2022-09-16T18:13:31;2.67;;;0.93;;
71381;SDS011;60099;45.660;13.804;2022-09-16T18:16:05;1.48;;;0.80;;
71381;SDS011;60099;45.660;13.804;2022-09-16T18:18:35;0.65;;;0.55;;